sensor_id;sensor_type;location;lat;lon;timestamp;pressure;altitude;pressure_sealevel;temperature;humidity
15694;BME280;7947;48.834;9.132;2022-12-18T00:00:40;99347.66;;;-8.06;72.80
15694;BME280;7947;48.834;9.132;2022-12-18T00:03:49;99351.03;;;-8.15;73.46
15694;BME280;7947;48.834;9.132;2022-12-18T00:06:56;99353.44;;;-8.23;73.38
15694;BME280;7947;48.834;9.132;2022-12-18T00:10:05;99355.91;;;-8.21;73.25
15694;BME280;7947;48.834;9.132;2022-12-18T00:13:18;99359.34;;;-8.21;73.78
15694;BME280;7947;48.834;9.132;2022-12-18T00:16:26;99358.34;;;-8.29;73.40
15694;BME280;7947;48.834;9.132;2022-12-18T00:19:35;99359.41;;;-8.32;73.16
15694;BME280;7947;48.834;9.132;2022-12-18T00:22:41;99356.50;;;-8.39;72.18
15694;BME280;7947;48.834;9.132;2022-12-18T00:25:49;99345.19;;;-8.49;72.62
15694;BME280;7947;48.834;9.132;2022-12-18T00:29:01;99353.56;;;-8.45;72.80
15694;BME280;7947;48.834;9.132;2022-12-18T00:32:07;99355.66;;;-8.39;72.70
15694;BME280;7947;48.834;9.132;2022-12-18T00:35:16;99355.09;;;-8.43;72.42
15694;BME280;7947;48.834;9.132;2022-12-18T00:38:49;99372.25;;;-8.51;72.22
15694;BME280;7947;48.834;9.132;2022-12-18T00:42:13;99371.56;;;-8.53;73.12
15694;BME280;7947;48.834;9.132;2022-12-18T00:45:39;99368.03;;;-8.52;73.14
15694;BME280;7947;48.834;9.132;2022-12-18T00:49:11;99362.97;;;-8.54;73.75
15694;BME280;7947;48.834;9.132;2022-12-18T00:52:32;99360.22;;;-8.52;73.50
15694;BME280;7947;48.834;9.132;2022-12-18T00:55:56;99356.22;;;-8.56;74.90
15694;BME280;7947;48.834;9.132;2022-12-18T00:59:44;99364.72;;;-8.54;74.02
15694;BME280;7947;48.834;9.132;2022-12-18T01:03:28;99365.47;;;-8.63;73.69
15694;BME280;7947;48.834;9.132;2022-12-18T01:06:57;99357.69;;;-8.63;73.36
15694;BME280;7947;48.834;9.132;2022-12-18T01:10:38;99350.94;;;-8.66;73.21
15694;BME280;7947;48.834;9.132;2022-12-18T01:14:16;99362.28;;;-8.67;74.32
15694;BME280;7947;48.834;9.132;2022-12-18T01:17:59;99359.69;;;-8.67;74.82
15694;BME280;7947;48.834;9.132;2022-12-18T01:21:59;99359.56;;;-8.65;74.05
15694;BME280;7947;48.834;9.132;2022-12-18T01:25:16;99367.13;;;-8.62;74.08
15694;BME280;7947;48.834;9.132;2022-12-18T01:28:41;99376.09;;;-8.66;73.98
15694;BME280;7947;48.834;9.132;2022-12-18T01:32:15;99374.22;;;-8.64;74.68
15694;BME280;7947;48.834;9.132;2022-12-18T01:35:28;99365.16;;;-8.49;75.16
15694;BME280;7947;48.834;9.132;2022-12-18T01:38:49;99365.78;;;-8.57;75.05
15694;BME280;7947;48.834;9.132;2022-12-18T01:42:11;99374.75;;;-8.50;76.12
15694;BME280;7947;48.834;9.132;2022-12-18T01:45:25;99373.94;;;-8.50;76.07
15694;BME280;7947;48.834;9.132;2022-12-18T01:48:33;99373.59;;;-8.57;75.61
15694;BME280;7947;48.834;9.132;2022-12-18T01:51:56;99371.81;;;-8.56;75.01
15694;BME280;7947;48.834;9.132;2022-12-18T01:55:19;99375.47;;;-8.59;75.42
15694;BME280;7947;48.834;9.132;2022-12-18T01:58:41;99368.16;;;-8.54;74.59
15694;BME280;7947;48.834;9.132;2022-12-18T02:02:07;99362.69;;;-8.51;74.63
15694;BME280;7947;48.834;9.132;2022-12-18T02:05:43;99362.44;;;-8.48;75.20
15694;BME280;7947;48.834;9.132;2022-12-18T02:09:06;99363.06;;;-8.55;75.64
15694;BME280;7947;48.834;9.132;2022-12-18T02:12:22;99372.75;;;-8.57;75.98
15694;BME280;7947;48.834;9.132;2022-12-18T02:15:47;99366.13;;;-8.50;75.51
15694;BME280;7947;48.834;9.132;2022-12-18T02:19:01;99381.22;;;-8.44;75.95
15694;BME280;7947;48.834;9.132;2022-12-18T02:22:29;99369.22;;;-8.36;76.67
15694;BME280;7947;48.834;9.132;2022-12-18T02:26:02;99368.50;;;-8.26;76.85
15694;BME280;7947;48.834;9.132;2022-12-18T02:29:26;99372.19;;;-8.19;77.41
15694;BME280;7947;48.834;9.132;2022-12-18T02:32:39;99375.06;;;-8.02;77.98
15694;BME280;7947;48.834;9.132;2022-12-18T02:35:58;99379.81;;;-7.86;77.99
15694;BME280;7947;48.834;9.132;2022-12-18T02:39:16;99380.81;;;-7.78;78.63
15694;BME280;7947;48.834;9.132;2022-12-18T02:43:08;99377.00;;;-7.74;78.21
15694;BME280;7947;48.834;9.132;2022-12-18T02:46:32;99379.22;;;-7.69;78.06
15694;BME280;7947;48.834;9.132;2022-12-18T02:49:57;99379.09;;;-7.68;78.51
15694;BME280;7947;48.834;9.132;2022-12-18T02:53:36;99384.06;;;-7.65;78.32
15694;BME280;7947;48.834;9.132;2022-12-18T02:56:57;99393.34;;;-7.62;78.31
15694;BME280;7947;48.834;9.132;2022-12-18T03:00:16;99391.94;;;-7.46;80.09
15694;BME280;7947;48.834;9.132;2022-12-18T03:03:45;99382.28;;;-7.55;75.48
15694;BME280;7947;48.834;9.132;2022-12-18T03:07:14;99372.34;;;-7.70;79.71
15694;BME280;7947;48.834;9.132;2022-12-18T03:10:37;99391.03;;;-7.65;82.45
15694;BME280;7947;48.834;9.132;2022-12-18T03:14:14;99392.31;;;-7.50;82.34
15694;BME280;7947;48.834;9.132;2022-12-18T03:17:46;99394.41;;;-7.44;82.26
15694;BME280;7947;48.834;9.132;2022-12-18T03:21:07;99400.63;;;-7.35;81.86
15694;BME280;7947;48.834;9.132;2022-12-18T03:24:31;99394.34;;;-7.23;80.09
15694;BME280;7947;48.834;9.132;2022-12-18T03:32:02;99402.97;;;-7.32;82.56
15694;BME280;7947;48.834;9.132;2022-12-18T03:35:31;99405.72;;;-7.34;83.50
15694;BME280;7947;48.834;9.132;2022-12-18T03:38:59;99405.59;;;-7.23;83.22
15694;BME280;7947;48.834;9.132;2022-12-18T03:42:20;99401.25;;;-7.13;81.08
15694;BME280;7947;48.834;9.132;2022-12-18T03:45:38;99401.41;;;-7.14;80.59
15694;BME280;7947;48.834;9.132;2022-12-18T03:49:09;99398.03;;;-7.35;80.58
15694;BME280;7947;48.834;9.132;2022-12-18T03:53:10;99398.03;;;-7.35;80.17
15694;BME280;7947;48.834;9.132;2022-12-18T03:56:28;99404.50;;;-7.30;79.94
15694;BME280;7947;48.834;9.132;2022-12-18T03:59:58;99400.41;;;-7.23;80.28
15694;BME280;7947;48.834;9.132;2022-12-18T04:03:34;99395.19;;;-7.23;79.30
15694;BME280;7947;48.834;9.132;2022-12-18T04:06:52;99395.50;;;-7.16;78.46
15694;BME280;7947;48.834;9.132;2022-12-18T04:10:24;99386.97;;;-7.18;77.52
15694;BME280;7947;48.834;9.132;2022-12-18T04:13:56;99385.47;;;-7.21;76.34
15694;BME280;7947;48.834;9.132;2022-12-18T04:17:29;99396.69;;;-7.30;76.90
15694;BME280;7947;48.834;9.132;2022-12-18T04:20:47;99392.13;;;-7.38;77.29
15694;BME280;7947;48.834;9.132;2022-12-18T04:24:11;99400.09;;;-7.29;77.37
15694;BME280;7947;48.834;9.132;2022-12-18T04:27:52;99400.63;;;-7.35;76.29
15694;BME280;7947;48.834;9.132;2022-12-18T04:31:18;99409.34;;;-7.46;76.03
15694;BME280;7947;48.834;9.132;2022-12-18T04:34:34;99412.50;;;-7.73;75.33
15694;BME280;7947;48.834;9.132;2022-12-18T04:37:51;99410.72;;;-7.93;75.13
15694;BME280;7947;48.834;9.132;2022-12-18T04:41:04;99413.81;;;-7.99;75.37
15694;BME280;7947;48.834;9.132;2022-12-18T04:44:21;99408.97;;;-8.13;77.65
15694;BME280;7947;48.834;9.132;2022-12-18T04:47:43;99402.25;;;-8.47;78.33
15694;BME280;7947;48.834;9.132;2022-12-18T04:50:53;99393.09;;;-8.62;79.27
15694;BME280;7947;48.834;9.132;2022-12-18T04:54:10;99398.22;;;-8.72;81.42
15694;BME280;7947;48.834;9.132;2022-12-18T04:57:19;99394.28;;;-8.66;83.63
15694;BME280;7947;48.834;9.132;2022-12-18T05:00:42;99398.69;;;-8.35;86.86
15694;BME280;7947;48.834;9.132;2022-12-18T05:03:51;99402.78;;;-8.12;87.30
15694;BME280;7947;48.834;9.132;2022-12-18T05:07:28;99391.09;;;-7.97;87.88
15694;BME280;7947;48.834;9.132;2022-12-18T05:10:38;99390.41;;;-7.78;87.18
15694;BME280;7947;48.834;9.132;2022-12-18T05:14:05;99388.97;;;-7.62;86.90
15694;BME280;7947;48.834;9.132;2022-12-18T05:17:33;99386.81;;;-7.57;84.33
15694;BME280;7947;48.834;9.132;2022-12-18T05:20:44;99400.94;;;-7.59;83.61
15694;BME280;7947;48.834;9.132;2022-12-18T05:23:57;99408.78;;;-7.70;79.79
15694;BME280;7947;48.834;9.132;2022-12-18T05:27:12;99418.34;;;-7.80;79.51
15694;BME280;7947;48.834;9.132;2022-12-18T05:30:39;99415.00;;;-7.92;78.19
15694;BME280;7947;48.834;9.132;2022-12-18T05:33:57;99419.22;;;-7.91;77.79
15694;BME280;7947;48.834;9.132;2022-12-18T05:37:36;99430.41;;;-7.79;77.75
15694;BME280;7947;48.834;9.132;2022-12-18T05:41:33;99426.72;;;-7.77;77.54
15694;BME280;7947;48.834;9.132;2022-12-18T05:45:23;99431.13;;;-8.09;77.86
15694;BME280;7947;48.834;9.132;2022-12-18T05:48:36;99423.00;;;-8.36;79.62
15694;BME280;7947;48.834;9.132;2022-12-18T05:51:59;99418.69;;;-8.47;82.04
15694;BME280;7947;48.834;9.132;2022-12-18T05:55:47;99416.84;;;-8.67;80.94
15694;BME280;7947;48.834;9.132;2022-12-18T05:59:19;99414.06;;;-8.86;79.34
15694;BME280;7947;48.834;9.132;2022-12-18T06:02:31;99415.88;;;-8.97;80.55
15694;BME280;7947;48.834;9.132;2022-12-18T06:05:50;99416.53;;;-8.84;79.85
15694;BME280;7947;48.834;9.132;2022-12-18T06:09:20;99420.91;;;-8.74;78.61
15694;BME280;7947;48.834;9.132;2022-12-18T06:12:44;99430.84;;;-8.79;77.23
15694;BME280;7947;48.834;9.132;2022-12-18T06:16:02;99425.56;;;-8.88;77.06
15694;BME280;7947;48.834;9.132;2022-12-18T06:19:17;99428.47;;;-8.82;75.75
15694;BME280;7947;48.834;9.132;2022-12-18T06:22:42;99428.16;;;-8.88;75.43
15694;BME280;7947;48.834;9.132;2022-12-18T06:26:03;99426.47;;;-8.89;75.66
15694;BME280;7947;48.834;9.132;2022-12-18T06:29:19;99429.81;;;-8.98;76.13
15694;BME280;7947;48.834;9.132;2022-12-18T06:32:27;99442.81;;;-8.98;75.23
15694;BME280;7947;48.834;9.132;2022-12-18T06:35:42;99442.31;;;-9.03;75.40
15694;BME280;7947;48.834;9.132;2022-12-18T06:39:04;99451.28;;;-9.07;75.47
15694;BME280;7947;48.834;9.132;2022-12-18T06:42:14;99460.97;;;-9.09;75.35
15694;BME280;7947;48.834;9.132;2022-12-18T06:45:31;99461.59;;;-9.06;75.84
15694;BME280;7947;48.834;9.132;2022-12-18T06:48:37;99449.91;;;-9.00;74.84
15694;BME280;7947;48.834;9.132;2022-12-18T06:52:05;99439.50;;;-9.00;75.23
15694;BME280;7947;48.834;9.132;2022-12-18T06:55:17;99438.41;;;-8.98;75.66
15694;BME280;7947;48.834;9.132;2022-12-18T06:58:31;99440.22;;;-8.98;75.26
15694;BME280;7947;48.834;9.132;2022-12-18T07:01:48;99448.69;;;-8.85;75.63
15694;BME280;7947;48.834;9.132;2022-12-18T07:04:55;99456.00;;;-8.79;76.21
15694;BME280;7947;48.834;9.132;2022-12-18T07:08:12;99459.19;;;-8.76;76.05
15694;BME280;7947;48.834;9.132;2022-12-18T07:11:23;99474.53;;;-8.73;76.21
15694;BME280;7947;48.834;9.132;2022-12-18T07:14:40;99462.72;;;-8.66;75.42
15694;BME280;7947;48.834;9.132;2022-12-18T07:17:47;99477.34;;;-8.65;75.29
15694;BME280;7947;48.834;9.132;2022-12-18T07:21:01;99469.69;;;-8.66;75.35
15694;BME280;7947;48.834;9.132;2022-12-18T07:24:15;99467.78;;;-8.64;75.69
15694;BME280;7947;48.834;9.132;2022-12-18T07:27:23;99473.81;;;-8.64;75.18
15694;BME280;7947;48.834;9.132;2022-12-18T07:30:55;99479.13;;;-8.65;75.15
15694;BME280;7947;48.834;9.132;2022-12-18T07:34:09;99472.97;;;-8.64;75.34
15694;BME280;7947;48.834;9.132;2022-12-18T07:37:32;99489.03;;;-8.59;75.68
15694;BME280;7947;48.834;9.132;2022-12-18T07:40:46;99484.88;;;-8.51;75.83
15694;BME280;7947;48.834;9.132;2022-12-18T07:44:13;99490.88;;;-8.39;75.63
15694;BME280;7947;48.834;9.132;2022-12-18T07:47:38;99488.50;;;-8.31;76.22
15694;BME280;7947;48.834;9.132;2022-12-18T07:50:58;99489.50;;;-8.22;76.54
15694;BME280;7947;48.834;9.132;2022-12-18T07:54:29;99484.06;;;-8.19;76.40
15694;BME280;7947;48.834;9.132;2022-12-18T07:58:04;99487.94;;;-8.14;76.80
15694;BME280;7947;48.834;9.132;2022-12-18T08:01:33;99492.03;;;-8.00;76.74
15694;BME280;7947;48.834;9.132;2022-12-18T08:04:52;99493.00;;;-8.01;78.65
15694;BME280;7947;48.834;9.132;2022-12-18T08:08:17;99489.69;;;-7.83;78.86
15694;BME280;7947;48.834;9.132;2022-12-18T08:11:41;99486.59;;;-7.77;78.24
15694;BME280;7947;48.834;9.132;2022-12-18T08:15:01;99486.59;;;-7.77;78.85
15694;BME280;7947;48.834;9.132;2022-12-18T08:18:18;99489.56;;;-7.81;79.52
15694;BME280;7947;48.834;9.132;2022-12-18T08:21:43;99488.63;;;-7.80;80.07
15694;BME280;7947;48.834;9.132;2022-12-18T08:25:10;99488.03;;;-7.84;80.79
15694;BME280;7947;48.834;9.132;2022-12-18T08:28:22;99495.25;;;-7.76;80.90
15694;BME280;7947;48.834;9.132;2022-12-18T08:31:32;99491.22;;;-7.60;81.95
15694;BME280;7947;48.834;9.132;2022-12-18T08:34:58;99483.28;;;-7.38;81.99
15694;BME280;7947;48.834;9.132;2022-12-18T08:38:32;99492.41;;;-7.22;82.24
15694;BME280;7947;48.834;9.132;2022-12-18T08:41:41;99485.63;;;-7.04;82.49
15694;BME280;7947;48.834;9.132;2022-12-18T08:45:13;99492.41;;;-6.92;82.05
15694;BME280;7947;48.834;9.132;2022-12-18T08:48:20;99496.69;;;-6.91;81.73
15694;BME280;7947;48.834;9.132;2022-12-18T08:51:30;99492.25;;;-6.91;82.30
15694;BME280;7947;48.834;9.132;2022-12-18T08:54:45;99484.09;;;-6.77;82.69
15694;BME280;7947;48.834;9.132;2022-12-18T08:57:56;99482.22;;;-6.65;82.10
15694;BME280;7947;48.834;9.132;2022-12-18T09:01:13;99478.38;;;-6.61;82.13
15694;BME280;7947;48.834;9.132;2022-12-18T09:04:24;99471.78;;;-6.56;81.62
15694;BME280;7947;48.834;9.132;2022-12-18T09:07:44;99463.69;;;-6.62;81.98
15694;BME280;7947;48.834;9.132;2022-12-18T09:10:58;99472.63;;;-6.55;82.52
15694;BME280;7947;48.834;9.132;2022-12-18T09:14:20;99462.63;;;-6.40;82.49
15694;BME280;7947;48.834;9.132;2022-12-18T09:17:29;99461.84;;;-6.31;82.37
15694;BME280;7947;48.834;9.132;2022-12-18T09:20:42;99464.84;;;-6.26;82.48
15694;BME280;7947;48.834;9.132;2022-12-18T09:23:58;99463.47;;;-6.21;82.42
15694;BME280;7947;48.834;9.132;2022-12-18T09:27:22;99455.94;;;-6.05;82.75
15694;BME280;7947;48.834;9.132;2022-12-18T09:30:37;99443.25;;;-5.25;80.22
15694;BME280;7947;48.834;9.132;2022-12-18T09:33:55;99442.72;;;-4.92;78.06
15694;BME280;7947;48.834;9.132;2022-12-18T09:37:16;99445.97;;;-4.80;77.83
15694;BME280;7947;48.834;9.132;2022-12-18T09:40:28;99438.44;;;-4.21;76.40
15694;BME280;7947;48.834;9.132;2022-12-18T09:43:45;99440.66;;;-3.91;74.41
15694;BME280;7947;48.834;9.132;2022-12-18T09:47:07;99443.94;;;-4.24;74.57
15694;BME280;7947;48.834;9.132;2022-12-18T09:50:23;99433.63;;;-4.70;77.25
15694;BME280;7947;48.834;9.132;2022-12-18T09:53:47;99424.78;;;-4.87;78.66
15694;BME280;7947;48.834;9.132;2022-12-18T09:57:01;99424.31;;;-5.00;79.12
15694;BME280;7947;48.834;9.132;2022-12-18T10:00:17;99442.78;;;-5.11;79.93
15694;BME280;7947;48.834;9.132;2022-12-18T10:03:32;99439.84;;;-4.98;80.47
15694;BME280;7947;48.834;9.132;2022-12-18T10:06:45;99440.00;;;-5.00;80.78
15694;BME280;7947;48.834;9.132;2022-12-18T10:10:04;99444.47;;;-4.83;81.27
15694;BME280;7947;48.834;9.132;2022-12-18T10:13:20;99444.19;;;-4.62;81.43
15694;BME280;7947;48.834;9.132;2022-12-18T10:16:53;99437.88;;;-4.42;80.65
15694;BME280;7947;48.834;9.132;2022-12-18T10:20:13;99448.06;;;-4.21;80.04
15694;BME280;7947;48.834;9.132;2022-12-18T10:24:01;99448.00;;;-4.12;80.40
15694;BME280;7947;48.834;9.132;2022-12-18T10:28:06;99453.22;;;-3.94;79.53
15694;BME280;7947;48.834;9.132;2022-12-18T10:31:24;99445.59;;;-3.88;79.43
15694;BME280;7947;48.834;9.132;2022-12-18T10:34:51;99445.00;;;-3.82;79.29
15694;BME280;7947;48.834;9.132;2022-12-18T10:38:25;99444.75;;;-3.71;79.86
15694;BME280;7947;48.834;9.132;2022-12-18T10:42:10;99450.91;;;-3.62;79.65
15694;BME280;7947;48.834;9.132;2022-12-18T10:45:23;99443.66;;;-3.60;80.22
15694;BME280;7947;48.834;9.132;2022-12-18T10:48:36;99438.16;;;-3.31;79.24
15694;BME280;7947;48.834;9.132;2022-12-18T10:51:50;99430.44;;;-2.65;76.24
15694;BME280;7947;48.834;9.132;2022-12-18T10:55:15;99431.88;;;-2.05;74.66
15694;BME280;7947;48.834;9.132;2022-12-18T10:58:37;99436.81;;;-1.54;72.09
15694;BME280;7947;48.834;9.132;2022-12-18T11:02:08;99425.91;;;-1.27;69.86
15694;BME280;7947;48.834;9.132;2022-12-18T11:06:08;99440.22;;;-1.21;69.98
15694;BME280;7947;48.834;9.132;2022-12-18T11:10:00;99424.97;;;-0.87;68.78
15694;BME280;7947;48.834;9.132;2022-12-18T11:13:22;99410.78;;;-0.17;66.68
15694;BME280;7947;48.834;9.132;2022-12-18T11:16:36;99399.59;;;0.41;65.61
15694;BME280;7947;48.834;9.132;2022-12-18T11:20:36;99407.28;;;0.51;63.46
15694;BME280;7947;48.834;9.132;2022-12-18T11:24:27;99393.88;;;0.52;63.00
15694;BME280;7947;48.834;9.132;2022-12-18T11:27:52;99393.66;;;0.76;62.60
15694;BME280;7947;48.834;9.132;2022-12-18T11:31:38;99382.78;;;1.30;61.09
15694;BME280;7947;48.834;9.132;2022-12-18T11:34:55;99391.69;;;2.21;57.42
15694;BME280;7947;48.834;9.132;2022-12-18T11:38:24;99389.34;;;2.05;56.56
15694;BME280;7947;48.834;9.132;2022-12-18T11:41:51;99382.94;;;2.00;57.68
15694;BME280;7947;48.834;9.132;2022-12-18T11:45:34;99375.72;;;1.87;58.06
15694;BME280;7947;48.834;9.132;2022-12-18T11:48:48;99378.75;;;2.05;57.87
15694;BME280;7947;48.834;9.132;2022-12-18T11:52:09;99377.69;;;2.27;56.67
15694;BME280;7947;48.834;9.132;2022-12-18T11:55:16;99375.50;;;2.86;55.92
15694;BME280;7947;48.834;9.132;2022-12-18T11:58:42;99363.09;;;2.93;53.82
15694;BME280;7947;48.834;9.132;2022-12-18T12:02:17;99352.19;;;3.09;53.38
15694;BME280;7947;48.834;9.132;2022-12-18T12:05:47;99358.22;;;2.62;54.08
15694;BME280;7947;48.834;9.132;2022-12-18T12:09:07;99353.88;;;2.27;54.64
15694;BME280;7947;48.834;9.132;2022-12-18T12:12:33;99350.94;;;2.16;55.33
15694;BME280;7947;48.834;9.132;2022-12-18T12:16:10;99342.09;;;2.30;56.03
15694;BME280;7947;48.834;9.132;2022-12-18T12:19:40;99345.13;;;1.42;57.79
15694;BME280;7947;48.834;9.132;2022-12-18T12:23:09;99347.19;;;1.26;59.24
15694;BME280;7947;48.834;9.132;2022-12-18T12:26:42;99351.25;;;0.93;60.78
15694;BME280;7947;48.834;9.132;2022-12-18T12:30:08;99351.31;;;0.70;61.26
15694;BME280;7947;48.834;9.132;2022-12-18T12:33:40;99354.81;;;0.85;61.33
15694;BME280;7947;48.834;9.132;2022-12-18T12:41:03;99343.66;;;1.75;59.73
15694;BME280;7947;48.834;9.132;2022-12-18T12:44:54;99337.53;;;1.54;58.87
15694;BME280;7947;48.834;9.132;2022-12-18T12:48:33;99354.16;;;1.48;59.11
15694;BME280;7947;48.834;9.132;2022-12-18T12:52:28;99365.97;;;1.52;59.35
15694;BME280;7947;48.834;9.132;2022-12-18T12:59:31;99366.75;;;1.88;58.60
15694;BME280;7947;48.834;9.132;2022-12-18T13:03:08;99366.03;;;2.43;57.13
15694;BME280;7947;48.834;9.132;2022-12-18T13:06:40;99363.81;;;2.46;56.23
15694;BME280;7947;48.834;9.132;2022-12-18T13:10:32;99357.44;;;2.68;55.67
15694;BME280;7947;48.834;9.132;2022-12-18T13:14:22;99365.41;;;2.75;56.38
15694;BME280;7947;48.834;9.132;2022-12-18T13:17:36;99359.06;;;2.69;55.52
15694;BME280;7947;48.834;9.132;2022-12-18T13:25:42;99350.94;;;3.05;54.80
15694;BME280;7947;48.834;9.132;2022-12-18T13:29:43;99349.44;;;2.90;54.56
15694;BME280;7947;48.834;9.132;2022-12-18T13:33:42;99341.28;;;2.91;54.52
15694;BME280;7947;48.834;9.132;2022-12-18T13:37:41;99336.84;;;3.05;54.78
15694;BME280;7947;48.834;9.132;2022-12-18T13:41:53;99332.56;;;2.97;54.60
15694;BME280;7947;48.834;9.132;2022-12-18T13:45:43;99321.66;;;2.79;55.57
15694;BME280;7947;48.834;9.132;2022-12-18T13:49:26;99327.44;;;2.55;55.85
15694;BME280;7947;48.834;9.132;2022-12-18T13:52:37;99333.22;;;2.71;55.02
15694;BME280;7947;48.834;9.132;2022-12-18T13:55:58;99325.47;;;2.36;56.62
15694;BME280;7947;48.834;9.132;2022-12-18T13:59:15;99335.34;;;2.00;57.83
15694;BME280;7947;48.834;9.132;2022-12-18T14:02:30;99325.97;;;1.76;58.84
15694;BME280;7947;48.834;9.132;2022-12-18T14:06:03;99331.81;;;1.15;60.84
15694;BME280;7947;48.834;9.132;2022-12-18T14:09:15;99334.56;;;0.77;62.71
15694;BME280;7947;48.834;9.132;2022-12-18T14:12:50;99340.41;;;0.44;64.40
15694;BME280;7947;48.834;9.132;2022-12-18T14:16:11;99335.66;;;0.25;65.35
15694;BME280;7947;48.834;9.132;2022-12-18T14:19:21;99338.50;;;-0.22;66.76
15694;BME280;7947;48.834;9.132;2022-12-18T14:22:37;99348.38;;;-0.39;68.37
15694;BME280;7947;48.834;9.132;2022-12-18T14:25:46;99338.56;;;-0.53;69.68
15694;BME280;7947;48.834;9.132;2022-12-18T14:28:55;99339.13;;;-0.65;70.22
15694;BME280;7947;48.834;9.132;2022-12-18T14:32:21;99344.41;;;-0.65;69.83
15694;BME280;7947;48.834;9.132;2022-12-18T14:35:52;99339.66;;;-0.70;70.90
15694;BME280;7947;48.834;9.132;2022-12-18T14:39:18;99347.47;;;-0.84;70.88
15694;BME280;7947;48.834;9.132;2022-12-18T14:42:31;99346.88;;;-1.03;71.41
15694;BME280;7947;48.834;9.132;2022-12-18T14:45:41;99350.38;;;-1.10;72.75
15694;BME280;7947;48.834;9.132;2022-12-18T14:48:53;99358.66;;;-1.21;72.82
15694;BME280;7947;48.834;9.132;2022-12-18T14:52:33;99354.72;;;-1.33;74.00
15694;BME280;7947;48.834;9.132;2022-12-18T14:56:14;99357.72;;;-1.44;75.03
15694;BME280;7947;48.834;9.132;2022-12-18T14:59:39;99368.28;;;-1.60;75.61
15694;BME280;7947;48.834;9.132;2022-12-18T15:03:30;99360.56;;;-1.70;76.38
15694;BME280;7947;48.834;9.132;2022-12-18T15:07:10;99358.13;;;-1.79;76.46
15694;BME280;7947;48.834;9.132;2022-12-18T15:10:33;99354.53;;;-1.87;76.92
15694;BME280;7947;48.834;9.132;2022-12-18T15:18:32;99353.03;;;-2.05;78.30
15694;BME280;7947;48.834;9.132;2022-12-18T15:22:10;99342.38;;;-2.12;79.19
15694;BME280;7947;48.834;9.132;2022-12-18T15:25:38;99341.22;;;-2.17;78.61
15694;BME280;7947;48.834;9.132;2022-12-18T15:28:53;99346.66;;;-2.27;80.20
15694;BME280;7947;48.834;9.132;2022-12-18T15:32:47;99335.97;;;-2.25;80.02
15694;BME280;7947;48.834;9.132;2022-12-18T15:36:08;99345.66;;;-2.34;80.75
15694;BME280;7947;48.834;9.132;2022-12-18T15:39:35;99344.97;;;-2.36;81.09
15694;BME280;7947;48.834;9.132;2022-12-18T15:42:51;99349.91;;;-2.49;81.16
15694;BME280;7947;48.834;9.132;2022-12-18T15:46:25;99347.25;;;-2.57;81.74
15694;BME280;7947;48.834;9.132;2022-12-18T15:49:43;99349.06;;;-2.65;82.63
15694;BME280;7947;48.834;9.132;2022-12-18T15:52:52;99341.03;;;-2.64;82.28
15694;BME280;7947;48.834;9.132;2022-12-18T15:56:14;99350.84;;;-2.66;82.09
15694;BME280;7947;48.834;9.132;2022-12-18T15:59:40;99342.63;;;-2.79;82.28
15694;BME280;7947;48.834;9.132;2022-12-18T16:03:15;99350.31;;;-2.86;83.86
15694;BME280;7947;48.834;9.132;2022-12-18T16:06:52;99349.97;;;-2.83;84.06
15694;BME280;7947;48.834;9.132;2022-12-18T16:10:27;99350.16;;;-2.84;83.37
15694;BME280;7947;48.834;9.132;2022-12-18T16:14:16;99357.06;;;-2.83;84.28
15694;BME280;7947;48.834;9.132;2022-12-18T16:17:44;99342.44;;;-2.86;83.68
15694;BME280;7947;48.834;9.132;2022-12-18T16:21:13;99349.19;;;-2.83;83.78
15694;BME280;7947;48.834;9.132;2022-12-18T16:24:23;99340.81;;;-2.87;84.37
15694;BME280;7947;48.834;9.132;2022-12-18T16:27:52;99340.63;;;-2.93;84.78
15694;BME280;7947;48.834;9.132;2022-12-18T16:31:11;99334.38;;;-2.92;84.72
15694;BME280;7947;48.834;9.132;2022-12-18T16:34:38;99347.03;;;-2.88;84.41
15694;BME280;7947;48.834;9.132;2022-12-18T16:41:22;99334.78;;;-2.71;83.91
15694;BME280;7947;48.834;9.132;2022-12-18T16:44:38;99331.16;;;-2.70;82.71
15694;BME280;7947;48.834;9.132;2022-12-18T16:47:45;99332.81;;;-2.61;83.01
15694;BME280;7947;48.834;9.132;2022-12-18T16:50:59;99332.66;;;-2.59;82.27
15694;BME280;7947;48.834;9.132;2022-12-18T16:54:18;99342.00;;;-2.65;82.64
15694;BME280;7947;48.834;9.132;2022-12-18T16:57:38;99337.72;;;-2.74;83.75
15694;BME280;7947;48.834;9.132;2022-12-18T17:01:01;99334.41;;;-2.84;84.11
15694;BME280;7947;48.834;9.132;2022-12-18T17:04:46;99316.88;;;-2.84;83.80
15694;BME280;7947;48.834;9.132;2022-12-18T17:08:19;99327.03;;;-2.81;84.15
15694;BME280;7947;48.834;9.132;2022-12-18T17:11:35;99322.78;;;-2.82;84.87
15694;BME280;7947;48.834;9.132;2022-12-18T17:15:04;99314.56;;;-2.79;84.27
15694;BME280;7947;48.834;9.132;2022-12-18T17:18:12;99313.91;;;-2.81;85.11
15694;BME280;7947;48.834;9.132;2022-12-18T17:21:20;99311.28;;;-2.81;84.83
15694;BME280;7947;48.834;9.132;2022-12-18T17:24:29;99311.94;;;-2.79;84.59
15694;BME280;7947;48.834;9.132;2022-12-18T17:27:45;99302.94;;;-2.76;84.88
15694;BME280;7947;48.834;9.132;2022-12-18T17:30:55;99302.75;;;-2.83;85.48
15694;BME280;7947;48.834;9.132;2022-12-18T17:34:00;99301.31;;;-2.77;86.18
15694;BME280;7947;48.834;9.132;2022-12-18T17:37:03;99301.28;;;-2.69;86.12
15694;BME280;7947;48.834;9.132;2022-12-18T17:40:09;99306.06;;;-2.64;85.48
15694;BME280;7947;48.834;9.132;2022-12-18T17:43:12;99303.59;;;-2.66;86.04
15694;BME280;7947;48.834;9.132;2022-12-18T17:46:16;99307.84;;;-2.65;84.83
15694;BME280;7947;48.834;9.132;2022-12-18T17:49:19;99312.31;;;-2.65;85.06
15694;BME280;7947;48.834;9.132;2022-12-18T17:52:22;99312.47;;;-2.59;85.38
15694;BME280;7947;48.834;9.132;2022-12-18T17:55:26;99307.22;;;-2.59;85.07
15694;BME280;7947;48.834;9.132;2022-12-18T17:58:29;99311.16;;;-2.55;85.18
15694;BME280;7947;48.834;9.132;2022-12-18T18:01:33;99305.75;;;-2.53;84.90
15694;BME280;7947;48.834;9.132;2022-12-18T18:04:44;99308.72;;;-2.56;85.24
15694;BME280;7947;48.834;9.132;2022-12-18T18:07:48;99310.34;;;-2.55;84.66
15694;BME280;7947;48.834;9.132;2022-12-18T18:10:53;99304.78;;;-2.52;84.77
15694;BME280;7947;48.834;9.132;2022-12-18T18:13:55;99297.72;;;-2.60;84.20
15694;BME280;7947;48.834;9.132;2022-12-18T18:17:06;99292.47;;;-2.60;84.53
15694;BME280;7947;48.834;9.132;2022-12-18T18:20:09;99287.03;;;-2.58;85.06
15694;BME280;7947;48.834;9.132;2022-12-18T18:23:12;99301.97;;;-2.59;85.20
15694;BME280;7947;48.834;9.132;2022-12-18T18:26:22;99291.31;;;-2.57;84.19
15694;BME280;7947;48.834;9.132;2022-12-18T18:29:47;99291.00;;;-2.54;84.93
15694;BME280;7947;48.834;9.132;2022-12-18T18:32:58;99278.19;;;-2.57;85.06
15694;BME280;7947;48.834;9.132;2022-12-18T18:36:51;99270.81;;;-2.62;85.56